Etusivu
METAR-TAF:

METAR-TAF

Lentoasemat :

Agri-Science Center

Chillicothe, Missouri, Yhdysvallat

Leveyspiiri: 39-49N, Pituuspiiri: 093-35W, korkeus merenpinnasta: 234 m

Tämänhetkinen sää

Tämä raportti tehtiin 45 minuuttia sitten, kello 16.52 UTC
Tuuli 11 kn etelästä puuskistuen 17 kn:hen
Lämpötila -2°C
Kosteus 63%
Ilmanpaine 1018 hPa

METAR: KCDJ 131652Z AUTO 19011G17KT M02/M08 A3006 RMK AO1 SLP198 T10171083

Aika: 11:37 (17:37 UTC)


TAF: puuttuu

Säähavainnot ja -ennusteet yli 4000 lentoasemalta (METAR- ja TAF-raportit).

Käytössä olevat sääasemat on merkitty karttaan keltaisilla ja punaisilla pisteillä.

Aseta hiiri pisteen päälle nähdäksesi sääaseman nimen.

Klikkaa sitten nähdäksesi säähavainnot ja -ennusteet.

Kartan vaihtaminen: klikkaa mustalla rastilla varustettuja vihreitä pisteitä, niin voit zoomata sisään; viivalla varustettua vihreää pistettä, niin voit zoomata ulos tai vihreitä nuolia, niin pääset viereisille kartoille.


METAR-TAF: